Terminal Aerodrome Forecast
Issued by NWS

Home | Current Version | Previous Version | Text Only | Print | Product List | Glossary On
Versions: 1 2 3 4 5 6 7 8 9 10 11 12 13 14
139
FTAK31 PAJN 300537
TAFAKT
TAF
PAKT 300537Z 3006/0106 VRB06KT P6SM SCT030 BKN060
      TEMPO 3008/3012 12010G15KT
     FM301300 15015KT P6SM OVC040
     FM301500 14015G25KT P6SM -RA SCT020 OVC040
     FM301700 15020G30KT 3SM RA BR OVC010 WS020/14045KT
     FM302100 15020G30KT 2SM RA BR OVC008 WS020/15050KT
      AMD LTD TO CLD VIS AND WIND TIL 301500=

USA.gov is the U.S. government's official web portal to all federal, state and local government web resources and services.